createdAt,value
2022-08-19T00:00:51.746Z,1.75
2022-08-19T00:05:53.876Z,1.50
2022-08-19T00:10:55.426Z,1.63
2022-08-19T00:15:59.501Z,1.67
2022-08-19T00:21:01.690Z,1.45
2022-08-19T00:26:05.608Z,1.65
2022-08-19T00:31:08.667Z,1.48
2022-08-19T00:36:13.432Z,2.05
2022-08-19T00:41:19.007Z,1.20
2022-08-19T00:46:21.423Z,1.90
2022-08-19T00:51:27.497Z,2.22
2022-08-19T00:56:29.950Z,1.38
2022-08-19T01:01:31.612Z,2.33
2022-08-19T01:06:36.641Z,2.13
2022-08-19T01:11:42.607Z,2.00
2022-08-19T01:16:46.236Z,2.10
2022-08-19T01:21:56.722Z,1.75
2022-08-19T01:26:58.628Z,2.20
2022-08-19T01:32:01.772Z,1.42
2022-08-19T01:37:09.407Z,1.90
2022-08-19T01:42:13.737Z,1.60
2022-08-19T01:47:15.871Z,1.67
2022-08-19T01:52:17.635Z,3.00
2022-08-19T01:57:19.553Z,1.52
2022-08-19T02:02:21.003Z,2.00
2022-08-19T02:07:22.687Z,1.77
2022-08-19T02:12:24.365Z,1.58
2022-08-19T02:17:25.991Z,1.75
2022-08-19T02:22:27.716Z,2.30
2022-08-19T02:27:30.032Z,3.15
2022-08-19T02:32:32.156Z,2.90
2022-08-19T02:37:52.395Z,4.95
2022-08-19T02:42:54.278Z,4.75
2022-08-19T02:47:57.860Z,4.60
2022-08-19T02:52:59.674Z,4.20
2022-08-19T02:58:01.355Z,4.70
2022-08-19T03:03:02.920Z,4.88
2022-08-19T03:08:05.108Z,4.20
2022-08-19T03:13:06.781Z,4.20
2022-08-19T03:18:08.640Z,4.25
2022-08-19T03:23:11.151Z,5.90
2022-08-19T03:28:14.046Z,4.72
2022-08-19T03:33:18.124Z,5.55
2022-08-19T03:38:29.228Z,5.85
2022-08-19T03:43:30.804Z,5.40
2022-08-19T03:48:33.129Z,4.38
2022-08-19T03:53:35.894Z,5.38
2022-08-19T03:58:38.544Z,5.82
2022-08-19T04:03:41.387Z,6.07
2022-08-19T04:08:44.682Z,6.65
2022-08-19T04:13:46.314Z,5.00
2022-08-19T04:18:49.204Z,6.03
2022-08-19T04:23:51.235Z,5.25
2022-08-19T04:28:55.265Z,4.80
2022-08-19T04:33:59.153Z,6.38
2022-08-19T04:39:05.980Z,4.38
2022-08-19T04:44:07.963Z,6.30
2022-08-19T04:49:13.226Z,5.53
2022-08-19T04:54:19.140Z,5.22
2022-08-19T04:59:39.490Z,4.65
2022-08-19T05:04:41.060Z,5.72
2022-08-19T05:09:57.907Z,4.10
2022-08-19T05:15:01.783Z,4.55
2022-08-19T05:20:24.628Z,4.78
2022-08-19T05:25:26.473Z,4.68
2022-08-19T05:30:46.105Z,4.15
2022-08-19T05:35:50.514Z,4.70
2022-08-19T05:40:52.488Z,4.63
2022-08-19T05:45:54.256Z,4.35
2022-08-19T05:50:55.846Z,4.20
2022-08-19T05:55:57.595Z,4.07
2022-08-19T06:01:05.294Z,4.72
2022-08-19T06:06:10.432Z,5.18
2022-08-19T06:11:23.180Z,5.60
2022-08-19T06:16:24.650Z,5.72
2022-08-19T06:21:28.552Z,5.13
2022-08-19T06:26:30.285Z,4.50
2022-08-19T06:31:34.454Z,5.28
2022-08-19T06:36:42.694Z,6.22
2022-08-19T06:41:51.803Z,5.38
2022-08-19T06:46:56.358Z,6.72
2022-08-19T06:51:58.952Z,6.43
2022-08-19T06:57:04.111Z,6.05
2022-08-19T07:02:07.617Z,6.32
2022-08-19T07:07:20.072Z,7.07
2022-08-19T07:12:22.693Z,7.57
2022-08-19T07:17:24.353Z,6.97
2022-08-19T07:22:26.771Z,7.18
2022-08-19T07:27:28.436Z,7.68
2022-08-19T07:32:31.757Z,6.85
2022-08-19T07:37:36.020Z,7.97
2022-08-19T07:42:38.866Z,5.82
2022-08-19T07:47:49.270Z,6.57
2022-08-19T07:52:52.735Z,7.28
2022-08-19T07:57:54.505Z,5.90
2022-08-19T08:02:56.312Z,4.85
2022-08-19T08:08:16.439Z,4.40
2022-08-19T08:13:18.194Z,4.93
2022-08-19T08:18:21.602Z,4.50
2022-08-19T08:23:25.699Z,3.53
2022-08-19T08:28:31.206Z,3.40
2022-08-19T08:33:35.234Z,4.22
2022-08-19T08:38:40.169Z,4.15
2022-08-19T08:43:47.472Z,3.25
2022-08-19T08:49:05.138Z,3.22
2022-08-19T08:54:10.994Z,3.28
2022-08-19T08:59:29.056Z,3.80
2022-08-19T09:04:31.212Z,3.28
2022-08-19T09:09:42.207Z,2.72
2022-08-19T09:15:06.948Z,1.88
2022-08-19T09:20:11.320Z,2.85
2022-08-19T09:25:27.102Z,1.95
2022-08-19T09:30:35.394Z,1.90
2022-08-19T09:35:49.925Z,1.90
2022-08-19T09:40:55.324Z,1.88
2022-08-19T09:45:58.223Z,1.85
2022-08-19T09:51:11.942Z,1.58
2022-08-19T09:56:14.347Z,1.75
2022-08-19T10:01:21.703Z,1.80
2022-08-19T10:06:45.539Z,2.15
2022-08-19T10:11:54.588Z,2.20
2022-08-19T10:16:57.494Z,2.63
2022-08-19T10:22:04.173Z,1.98
2022-08-19T10:27:06.692Z,1.75
2022-08-19T10:32:10.903Z,2.40
2022-08-19T10:37:14.422Z,1.92
2022-08-19T10:42:19.864Z,2.20
2022-08-19T10:47:25.573Z,2.03
2022-08-19T10:52:38.870Z,1.60
2022-08-19T10:58:01.165Z,1.55
2022-08-19T11:03:03.676Z,2.17
2022-08-19T11:08:23.517Z,1.63
2022-08-19T11:13:25.976Z,1.98
2022-08-19T11:18:27.792Z,2.53
2022-08-19T11:23:29.251Z,1.77
2022-08-19T11:28:30.855Z,2.17
2022-08-19T11:33:33.539Z,1.90
2022-08-19T11:38:36.566Z,1.67
2022-08-19T11:43:38.292Z,1.75
2022-08-19T11:48:40.735Z,1.60
2022-08-19T11:53:42.393Z,1.60
2022-08-19T11:58:44.503Z,1.17
2022-08-19T12:03:48.267Z,1.60
2022-08-19T12:08:49.848Z,1.27
2022-08-19T12:13:52.063Z,1.30
2022-08-19T12:18:54.367Z,1.20
2022-08-19T12:23:57.700Z,1.13
2022-08-19T12:29:00.393Z,1.48
2022-08-19T12:34:03.349Z,0.98
2022-08-19T12:39:05.205Z,1.35
2022-08-19T12:44:07.366Z,1.25
2022-08-19T12:49:27.367Z,1.30
2022-08-19T12:54:33.092Z,1.15
2022-08-19T12:59:38.958Z,1.02
2022-08-19T13:04:41.709Z,0.80
2022-08-19T13:09:43.624Z,1.30
2022-08-19T13:14:50.840Z,0.80
2022-08-19T13:19:52.871Z,0.90
2022-08-19T13:24:54.403Z,0.73
2022-08-19T13:30:14.418Z,0.85
2022-08-19T13:35:17.594Z,0.70
2022-08-19T13:40:23.732Z,0.50
2022-08-19T13:45:27.207Z,0.80
2022-08-19T13:50:34.576Z,0.68
2022-08-19T13:55:38.532Z,0.47
2022-08-19T14:00:44.516Z,0.68
2022-08-19T14:05:47.543Z,0.57
2022-08-19T14:10:49.713Z,0.82
2022-08-19T14:15:52.089Z,0.35
2022-08-19T14:20:53.815Z,1.05
2022-08-19T14:26:04.648Z,0.75
2022-08-19T14:31:06.204Z,0.60
2022-08-19T14:36:08.020Z,0.73
2022-08-19T14:41:17.404Z,0.60
2022-08-19T14:46:22.019Z,1.33
2022-08-19T14:51:27.369Z,1.27
2022-08-19T14:56:31.349Z,1.30
2022-08-19T15:01:32.889Z,1.02
2022-08-19T15:06:34.839Z,1.10
2022-08-19T15:11:37.622Z,0.80
2022-08-19T15:16:42.539Z,0.70
2022-08-19T15:21:44.148Z,0.65
2022-08-19T15:26:45.663Z,0.85
2022-08-19T15:31:47.214Z,0.90
2022-08-19T15:36:50.998Z,0.70
2022-08-19T15:41:52.759Z,0.68
2022-08-19T15:46:54.567Z,0.52
2022-08-19T15:51:57.924Z,0.77
2022-08-19T15:57:17.814Z,0.60
2022-08-19T16:02:40.432Z,0.47
2022-08-19T16:07:42.228Z,0.70
2022-08-19T16:12:43.687Z,0.73
2022-08-19T16:17:45.205Z,0.90
2022-08-19T16:22:59.141Z,0.63
2022-08-19T16:28:07.258Z,0.50
2022-08-19T16:33:09.987Z,0.75
2022-08-19T16:38:11.491Z,0.50
2022-08-19T16:43:13.174Z,0.50
2022-08-19T16:48:14.863Z,0.40
2022-08-19T16:53:22.034Z,0.43
2022-08-19T16:58:29.027Z,0.50
2022-08-19T17:03:36.773Z,0.40
2022-08-19T17:08:38.751Z,0.50
2022-08-19T17:13:40.237Z,0.35
2022-08-19T17:18:45.004Z,0.80
2022-08-19T17:23:46.521Z,0.70
2022-08-19T17:28:50.132Z,0.47
2022-08-19T17:33:52.518Z,0.68
2022-08-19T17:39:00.231Z,0.50
2022-08-19T17:44:03.764Z,0.68
2022-08-19T17:49:05.350Z,0.50
2022-08-19T17:54:10.732Z,0.50
2022-08-19T17:59:14.087Z,0.40
2022-08-19T18:04:17.049Z,0.40
2022-08-19T18:09:18.567Z,0.60
2022-08-19T18:14:32.039Z,1.00
2022-08-19T18:19:41.597Z,0.95
2022-08-19T18:24:45.915Z,0.45
2022-08-19T18:29:47.931Z,0.38
2022-08-19T18:34:49.420Z,0.52
2022-08-19T18:40:09.295Z,0.90
2022-08-19T18:45:31.967Z,0.60
2022-08-19T18:50:33.639Z,0.70
2022-08-19T18:55:35.219Z,0.60
2022-08-19T19:00:37.331Z,0.70
2022-08-19T19:05:39.922Z,0.40
2022-08-19T19:10:42.251Z,0.40
2022-08-19T19:15:43.883Z,0.60
2022-08-19T19:20:45.420Z,0.55
2022-08-19T19:25:51.029Z,0.30
2022-08-19T19:30:57.448Z,0.20
2022-08-19T19:35:59.452Z,0.28
2022-08-19T19:41:01.347Z,0.20
2022-08-19T19:46:02.900Z,0.30
2022-08-19T19:51:04.571Z,0.20
2022-08-19T19:56:06.530Z,0.17
2022-08-19T20:01:12.499Z,0.15
2022-08-19T20:06:19.572Z,0.40
2022-08-19T20:11:35.051Z,0.40
2022-08-19T20:16:38.094Z,0.15
2022-08-19T20:21:45.441Z,0.47
2022-08-19T20:26:53.554Z,0.20
2022-08-19T20:31:57.571Z,0.32
2022-08-19T20:37:00.669Z,0.47
2022-08-19T20:42:02.179Z,0.38
2022-08-19T20:47:04.251Z,0.35
2022-08-19T20:52:06.383Z,0.28
2022-08-19T20:57:08.708Z,0.52
2022-08-19T21:02:11.111Z,0.40
2022-08-19T21:07:12.576Z,0.40
2022-08-19T21:12:14.355Z,0.30
2022-08-19T21:17:15.859Z,0.30
2022-08-19T21:22:18.484Z,0.60
2022-08-19T21:27:20.035Z,0.52
2022-08-19T21:32:21.615Z,0.22
2022-08-19T21:37:25.745Z,0.25
2022-08-19T21:42:27.600Z,0.60
2022-08-19T21:47:29.123Z,0.30
2022-08-19T21:52:30.656Z,0.68
2022-08-19T21:57:32.172Z,0.40
2022-08-19T22:02:33.795Z,0.55
2022-08-19T22:07:36.751Z,0.45
2022-08-19T22:12:46.001Z,0.80
2022-08-19T22:17:54.323Z,0.40
2022-08-19T22:23:02.871Z,0.50
2022-08-19T22:28:07.906Z,0.83
2022-08-19T22:33:16.957Z,0.65
2022-08-19T22:38:18.423Z,0.40
2022-08-19T22:43:24.427Z,0.50
2022-08-19T22:48:28.481Z,0.90
2022-08-19T22:53:30.091Z,0.80
2022-08-19T22:58:31.892Z,0.75
2022-08-19T23:03:34.645Z,0.75
2022-08-19T23:08:39.666Z,0.60
2022-08-19T23:13:42.186Z,1.00
2022-08-19T23:18:45.288Z,1.00
2022-08-19T23:23:46.817Z,0.70
2022-08-19T23:29:06.913Z,0.98
2022-08-19T23:34:08.426Z,0.68
2022-08-19T23:39:10.039Z,1.02
2022-08-19T23:44:14.904Z,0.80
2022-08-19T23:49:16.927Z,0.90
2022-08-19T23:54:18.560Z,1.05
2022-08-19T23:59:20.331Z,0.88
